Time;durP1;ratioP1;P1;durP2;ratioP2;P2;SDS_P1;SDS_P2;PMS_P1;PMS_P2;Temp;Humidity;BMP_temperature;BMP_pressure;BME280_temperature;BME280_humidity;BME280_pressure;Samples;Min_cycle;Max_cycle;Signal;HPM_P1;HPM_P2
2023/05/19 00:01:54;;;;;;;6.23;4.90;;;12.00;99.90;;;;;;5039256;28;20442;-84
2023/05/19 00:04:20;;;;;;;8.47;5.20;;;12.00;99.90;;;;;;5038979;28;20218;-83
2023/05/19 00:06:50;;;;;;;5.77;4.00;;;11.90;99.90;;;;;;5034687;28;20434;-84
2023/05/19 00:09:16;;;;;;;9.17;4.80;;;11.90;99.90;;;;;;5042556;28;20508;-82
2023/05/19 00:11:41;;;;;;;5.33;4.80;;;11.90;99.90;;;;;;5045286;28;20429;-81
2023/05/19 00:14:08;;;;;;;14.30;5.00;;;11.80;99.90;;;;;;5037238;28;20230;-81
2023/05/19 00:16:36;;;;;;;8.40;4.93;;;11.80;99.90;;;;;;5028250;28;20225;-80
2023/05/19 00:19:04;;;;;;;10.97;5.30;;;11.80;99.90;;;;;;5037052;28;20440;-82
2023/05/19 00:21:30;;;;;;;6.17;4.50;;;11.70;99.90;;;;;;5049334;28;20443;-83
2023/05/19 00:23:56;;;;;;;7.87;5.10;;;11.60;99.90;;;;;;5049266;28;20455;-83
2023/05/19 00:26:22;;;;;;;6.40;4.50;;;11.60;99.90;;;;;;5047811;28;20422;-81
2023/05/19 00:28:52;;;;;;;5.60;4.57;;;11.60;99.90;;;;;;5036927;28;20436;-81
2023/05/19 00:31:18;;;;;;;11.30;5.80;;;11.60;99.90;;;;;;5044496;28;20488;-82
2023/05/19 00:33:43;;;;;;;7.83;4.60;;;11.60;99.90;;;;;;5040477;28;20453;-83
2023/05/19 00:36:09;;;;;;;10.07;5.40;;;11.60;99.90;;;;;;5042514;28;20198;-82
2023/05/19 00:38:36;;;;;;;12.43;4.57;;;11.50;99.90;;;;;;5043157;28;20190;-82
2023/05/19 00:41:03;;;;;;;12.83;4.50;;;11.50;99.90;;;;;;5036913;28;20194;-83
2023/05/19 00:43:29;;;;;;;6.63;4.37;;;11.50;99.90;;;;;;5049027;28;20986;-82
2023/05/19 00:45:55;;;;;;;8.07;4.50;;;11.40;99.90;;;;;;5035152;28;20485;-82
2023/05/19 00:48:21;;;;;;;8.30;5.13;;;11.40;99.90;;;;;;5029664;28;20413;-82
2023/05/19 00:50:47;;;;;;;9.33;5.00;;;11.40;99.90;;;;;;5046467;28;20504;-81
2023/05/19 00:53:15;;;;;;;9.13;5.30;;;11.40;99.90;;;;;;5038469;28;20434;-82
2023/05/19 00:55:41;;;;;;;11.20;5.07;;;11.40;99.90;;;;;;5035128;28;20456;-83
2023/05/19 00:58:09;;;;;;;9.30;5.80;;;11.40;99.90;;;;;;5030935;28;20445;-81
2023/05/19 01:00:35;;;;;;;7.63;4.13;;;11.40;99.90;;;;;;5048376;28;20186;-83
2023/05/19 01:03:01;;;;;;;8.83;5.30;;;11.30;99.90;;;;;;5043976;28;20471;-83
2023/05/19 01:05:27;;;;;;;5.50;4.80;;;11.30;99.90;;;;;;5045928;28;20469;-82
2023/05/19 01:07:55;;;;;;;10.23;5.30;;;11.30;99.90;;;;;;5036848;28;20520;-80
2023/05/19 01:10:21;;;;;;;9.60;4.60;;;11.20;99.90;;;;;;5039936;28;20297;-82
2023/05/19 01:12:47;;;;;;;8.50;5.40;;;11.10;99.90;;;;;;5036733;28;20500;-82
2023/05/19 01:15:14;;;;;;;10.87;5.53;;;11.10;99.90;;;;;;5047800;28;20460;-81
2023/05/19 01:17:53;;;;;;;18.13;5.70;;;11.10;99.90;;;;;;5043468;28;20456;-81
2023/05/19 01:20:21;;;;;;;8.73;5.37;;;11.10;99.90;;;;;;5046450;28;20432;-82
2023/05/19 01:22:58;;;;;;;10.63;5.47;;;11.00;99.90;;;;;;5047057;28;20444;-80
2023/05/19 01:25:42;;;;;;;8.60;5.63;;;11.00;99.90;;;;;;5040035;28;20541;-80
2023/05/19 01:28:36;;;;;;;8.47;5.30;;;10.90;99.90;;;;;;5039486;28;20423;-81
2023/05/19 01:31:04;;;;;;;6.27;4.50;;;10.90;99.90;;;;;;5041968;28;20419;-82
2023/05/19 01:33:32;;;;;;;7.33;5.50;;;10.90;99.90;;;;;;5044035;28;20457;-83
2023/05/19 01:36:02;;;;;;;9.20;5.80;;;10.80;99.90;;;;;;5048374;28;20451;-80
2023/05/19 01:38:28;;;;;;;8.20;6.03;;;10.80;99.90;;;;;;5029059;28;20485;-82
2023/05/19 01:40:55;;;;;;;12.20;6.00;;;10.80;99.90;;;;;;5042158;28;20429;-81
2023/05/19 01:43:24;;;;;;;11.77;6.47;;;10.70;99.90;;;;;;5046349;28;20472;-81
2023/05/19 01:45:50;;;;;;;7.47;5.73;;;10.70;99.90;;;;;;5037338;28;20475;-83
2023/05/19 01:48:17;;;;;;;14.77;5.93;;;10.70;99.90;;;;;;5031228;28;20425;-83
2023/05/19 01:50:43;;;;;;;9.20;5.70;;;10.70;99.90;;;;;;5037468;28;20433;-82
2023/05/19 01:53:09;;;;;;;7.70;6.40;;;10.60;99.90;;;;;;5036986;28;20445;-82
2023/05/19 01:55:43;;;;;;;11.10;5.97;;;10.60;99.90;;;;;;5045346;28;20421;-80
2023/05/19 01:58:16;;;;;;;9.57;5.47;;;10.60;99.90;;;;;;5047547;28;20440;-82
2023/05/19 02:01:03;;;;;;;9.67;6.90;;;10.60;99.90;;;;;;5042598;28;20417;-82
2023/05/19 02:03:52;;;;;;;8.10;6.10;;;10.50;99.90;;;;;;5042926;28;20803;-83
2023/05/19 02:06:40;;;;;;;11.07;6.13;;;10.50;99.90;;;;;;5039970;28;20841;-82
2023/05/19 02:09:19;;;;;;;11.23;6.00;;;10.50;99.90;;;;;;5052056;28;20440;-82
2023/05/19 02:12:02;;;;;;;13.60;6.30;;;10.40;99.90;;;;;;5046761;28;20424;-83
2023/05/19 02:14:51;;;;;;;11.80;5.43;;;10.40;99.90;;;;;;5029694;28;21025;-82
2023/05/19 02:17:19;;;;;;;7.87;5.90;;;10.40;99.90;;;;;;5015954;28;20425;-81
2023/05/19 02:19:45;;;;;;;10.23;5.73;;;10.40;99.90;;;;;;5028852;28;20421;-82
2023/05/19 02:22:10;;;;;;;13.77;5.60;;;10.40;99.90;;;;;;5032942;28;20436;-82
2023/05/19 02:24:36;;;;;;;8.80;5.67;;;10.30;99.90;;;;;;5045278;28;20473;-83
2023/05/19 02:27:02;;;;;;;14.10;6.40;;;10.30;99.90;;;;;;5039899;28;20261;-81
2023/05/19 02:29:27;;;;;;;13.23;6.03;;;10.40;99.90;;;;;;5030446;28;20438;-83
2023/05/19 02:31:53;;;;;;;12.57;5.83;;;10.30;99.90;;;;;;5042694;28;20415;-83
2023/05/19 02:34:19;;;;;;;8.43;5.70;;;10.30;99.90;;;;;;5044374;28;20226;-83
2023/05/19 02:36:48;;;;;;;8.03;5.60;;;10.30;99.90;;;;;;5040342;28;20594;-83
2023/05/19 02:39:14;;;;;;;10.07;5.70;;;10.30;99.90;;;;;;5039149;28;20798;-82
2023/05/19 02:41:39;;;;;;;8.07;5.93;;;10.30;99.90;;;;;;5039696;28;20441;-81
2023/05/19 02:44:05;;;;;;;12.20;6.43;;;10.30;99.90;;;;;;5036341;28;20290;-82
2023/05/19 02:46:31;;;;;;;12.90;6.50;;;10.20;99.90;;;;;;5041008;28;20228;-83
2023/05/19 02:48:56;;;;;;;11.60;5.40;;;10.20;99.90;;;;;;5046941;28;20238;-80
2023/05/19 02:51:22;;;;;;;13.90;6.27;;;10.10;99.90;;;;;;5033334;28;20210;-80
2023/05/19 02:53:47;;;;;;;10.93;5.40;;;10.00;99.90;;;;;;5021651;28;20231;-80
2023/05/19 02:56:13;;;;;;;7.23;5.90;;;10.00;99.90;;;;;;5039144;28;20182;-82
2023/05/19 02:58:38;;;;;;;7.60;5.73;;;10.00;99.90;;;;;;5036106;28;20187;-82
2023/05/19 03:01:04;;;;;;;16.53;5.73;;;10.00;99.90;;;;;;5036632;28;20187;-82
2023/05/19 03:03:29;;;;;;;9.07;5.50;;;10.00;99.90;;;;;;5042652;28;20270;-82
2023/05/19 03:05:55;;;;;;;16.10;5.77;;;10.00;99.90;;;;;;5031431;28;20233;-82
2023/05/19 03:08:21;;;;;;;11.67;5.63;;;10.00;99.90;;;;;;5035833;28;20683;-81
2023/05/19 03:10:46;;;;;;;8.63;6.40;;;9.90;99.90;;;;;;5046758;28;20320;-82
2023/05/19 03:13:12;;;;;;;7.20;5.47;;;9.90;99.90;;;;;;5043191;28;20178;-82
2023/05/19 03:15:37;;;;;;;8.50;5.93;;;9.90;99.90;;;;;;5036786;28;20503;-81
2023/05/19 03:18:03;;;;;;;13.93;6.67;;;9.80;1.00;;;;;;5042984;28;20180;-82
2023/05/19 03:20:29;;;;;;;18.60;6.70;;;9.80;1.00;;;;;;5036380;28;20194;-82
2023/05/19 03:22:55;;;;;;;10.40;5.77;;;9.80;1.00;;;;;;5028411;28;20452;-83
2023/05/19 03:25:21;;;;;;;7.23;6.30;;;9.80;1.00;;;;;;5040304;28;20273;-82
2023/05/19 03:27:46;;;;;;;8.07;6.00;;;9.80;1.00;;;;;;5045175;28;20424;-82
2023/05/19 03:30:13;;;;;;;13.30;6.20;;;9.80;1.00;;;;;;5034994;28;20425;-82
2023/05/19 03:32:38;;;;;;;12.03;6.53;;;9.80;1.00;;;;;;5047257;28;20190;-82
2023/05/19 03:35:04;;;;;;;12.33;6.13;;;9.80;1.00;;;;;;5046844;28;20452;-82
2023/05/19 03:37:31;;;;;;;10.90;6.57;;;9.80;1.00;;;;;;5036874;28;20187;-82
2023/05/19 03:39:57;;;;;;;9.43;6.77;;;9.80;1.00;;;;;;5040277;28;20435;-82
2023/05/19 03:42:22;;;;;;;14.47;6.60;;;9.80;1.00;;;;;;5025098;28;20440;-81
2023/05/19 03:44:48;;;;;;;9.63;6.03;;;9.70;1.00;;;;;;5037867;28;20472;-82
2023/05/19 03:47:14;;;;;;;17.83;6.67;;;9.70;1.00;;;;;;5042076;28;20182;-82
2023/05/19 03:49:39;;;;;;;8.80;6.00;;;9.70;1.00;;;;;;5042908;28;20217;-81
2023/05/19 03:52:05;;;;;;;9.90;6.77;;;9.80;1.00;;;;;;5026067;28;20202;-82
2023/05/19 03:54:30;;;;;;;10.13;6.73;;;9.80;1.00;;;;;;5026879;28;20217;-82
2023/05/19 03:56:57;;;;;;;13.83;7.07;;;9.80;1.00;;;;;;5036916;28;20182;-82
2023/05/19 03:59:23;;;;;;;10.13;6.97;;;9.80;1.00;;;;;;5044799;28;20182;-82
2023/05/19 04:01:49;;;;;;;14.10;7.10;;;9.80;1.00;;;;;;5033479;28;20495;-82
2023/05/19 04:04:15;;;;;;;13.00;7.70;;;9.90;1.00;;;;;;5038538;28;20483;-83
2023/05/19 04:06:40;;;;;;;10.07;7.50;;;9.90;1.00;;;;;;5026960;28;20426;-82
2023/05/19 04:09:13;;;;;;;13.10;6.63;;;10.00;1.00;;;;;;5036330;28;20182;-81
2023/05/19 04:11:39;;;;;;;10.30;7.07;;;10.00;1.00;;;;;;5043868;28;20179;-80
2023/05/19 04:14:05;;;;;;;16.83;7.67;;;10.10;1.00;;;;;;5040600;28;20658;-81
2023/05/19 04:16:31;;;;;;;8.40;7.57;;;10.10;1.00;;;;;;5040070;28;20433;-82
2023/05/19 04:18:57;;;;;;;10.70;6.60;;;10.10;1.00;;;;;;5034547;28;20635;-81
2023/05/19 04:21:23;;;;;;;21.40;8.37;;;10.20;1.00;;;;;;5042036;28;20478;-79
2023/05/19 04:23:48;;;;;;;13.30;6.97;;;10.20;1.00;;;;;;5034277;28;20226;-82
2023/05/19 04:26:14;;;;;;;11.60;6.90;;;10.30;1.00;;;;;;5031546;28;20691;-82
2023/05/19 04:28:43;;;;;;;10.93;6.53;;;10.30;1.00;;;;;;5037387;28;20198;-82
2023/05/19 04:31:13;;;;;;;15.87;6.90;;;10.40;1.00;;;;;;5033309;28;20439;-82
2023/05/19 04:33:39;;;;;;;12.00;7.00;;;10.40;1.00;;;;;;5040768;28;20476;-83
2023/05/19 04:36:07;;;;;;;10.10;7.13;;;10.50;1.00;;;;;;5038888;28;20425;-80
2023/05/19 04:38:38;;;;;;;12.60;6.43;;;10.60;99.90;;;;;;5043333;28;20444;-83
2023/05/19 04:41:09;;;;;;;12.03;7.00;;;10.70;99.90;;;;;;5043500;28;20417;-83
2023/05/19 04:43:40;;;;;;;14.13;8.10;;;10.80;99.90;;;;;;5045293;28;20820;-79
2023/05/19 04:46:06;;;;;;;11.03;6.17;;;10.80;99.90;;;;;;5040369;28;20470;-82
2023/05/19 04:48:32;;;;;;;14.70;7.40;;;10.90;99.90;;;;;;5042483;28;20417;-80
2023/05/19 04:51:00;;;;;;;9.47;6.63;;;11.00;99.90;;;;;;5039439;28;20437;-82
2023/05/19 04:53:27;;;;;;;12.50;6.97;;;11.10;99.90;;;;;;5036788;28;20441;-84
2023/05/19 04:55:52;;;;;;;11.60;6.80;;;11.20;99.90;;;;;;5033889;28;20436;-83
2023/05/19 04:58:18;;;;;;;12.00;7.20;;;11.30;99.90;;;;;;5034633;28;20436;-82
2023/05/19 05:00:44;;;;;;;10.60;7.10;;;11.40;99.90;;;;;;5041487;28;20182;-82
2023/05/19 05:03:11;;;;;;;13.30;8.00;;;11.50;99.90;;;;;;5041783;28;20198;-82
2023/05/19 05:05:36;;;;;;;12.50;7.03;;;11.60;99.90;;;;;;5041195;28;20688;-82
2023/05/19 05:08:02;;;;;;;11.03;6.97;;;11.70;99.90;;;;;;5050136;28;20492;-82
2023/05/19 05:10:27;;;;;;;15.40;7.30;;;11.70;99.90;;;;;;5044354;28;20262;-81
2023/05/19 05:12:53;;;;;;;10.80;6.53;;;11.80;99.90;;;;;;5041441;28;20188;-83
2023/05/19 05:15:20;;;;;;;18.33;7.70;;;11.90;99.90;;;;;;5045788;28;20236;-81
2023/05/19 05:17:46;;;;;;;12.47;7.63;;;12.10;99.90;;;;;;5028741;28;20456;-84
2023/05/19 05:20:12;;;;;;;13.33;7.40;;;12.20;99.90;;;;;;5035955;28;20437;-84
2023/05/19 05:22:37;;;;;;;12.40;7.80;;;12.30;99.90;;;;;;5039322;28;20428;-82
2023/05/19 05:25:04;;;;;;;10.30;8.20;;;12.40;99.90;;;;;;5033617;28;20457;-82
2023/05/19 05:27:30;;;;;;;10.90;7.67;;;12.40;99.90;;;;;;5044594;28;20205;-82
2023/05/19 05:29:56;;;;;;;12.90;7.77;;;12.60;99.90;;;;;;5048863;28;20428;-83
2023/05/19 05:32:21;;;;;;;15.77;8.70;;;12.70;99.90;;;;;;5049504;28;20448;-82
2023/05/19 05:34:47;;;;;;;15.23;8.27;;;12.80;99.90;;;;;;5037536;28;20211;-82
2023/05/19 05:37:13;;;;;;;10.53;7.03;;;12.90;99.90;;;;;;5041002;28;20186;-83
2023/05/19 05:39:39;;;;;;;16.13;7.93;;;13.10;99.90;;;;;;5043726;28;20236;-81
2023/05/19 05:42:04;;;;;;;11.00;6.90;;;13.20;99.90;;;;;;5048766;28;20440;-83
2023/05/19 05:44:30;;;;;;;9.53;7.10;;;13.40;99.90;;;;;;5030623;28;20223;-84
2023/05/19 05:46:56;;;;;;;15.37;7.50;;;13.80;99.90;;;;;;5038981;28;20192;-82
2023/05/19 05:49:21;;;;;;;12.43;7.67;;;14.40;99.90;;;;;;5048147;28;20191;-84
2023/05/19 05:51:47;;;;;;;12.30;7.43;;;15.70;99.90;;;;;;5041457;28;20223;-84
2023/05/19 05:54:15;;;;;;;10.00;5.90;;;19.20;99.90;;;;;;5031131;28;20309;-84
2023/05/19 05:56:41;;;;;;;12.40;6.13;;;23.20;99.90;;;;;;5039708;28;20170;-84
2023/05/19 05:59:07;;;;;;;8.60;5.00;;;25.40;99.90;;;;;;5041512;28;20546;-80
2023/05/19 06:01:34;;;;;;;9.70;6.47;;;26.10;99.90;;;;;;5043300;28;20186;-81
2023/05/19 06:03:59;;;;;;;10.10;5.73;;;27.10;99.90;;;;;;5037003;28;20202;-81
2023/05/19 06:06:26;;;;;;;6.97;5.07;;;28.80;99.90;;;;;;5037639;28;20451;-81
2023/05/19 06:08:51;;;;;;;9.87;5.53;;;28.80;99.90;;;;;;5043345;28;20182;-81
2023/05/19 06:11:18;;;;;;;7.33;5.63;;;27.90;99.90;;;;;;5041322;28;20483;-81
2023/05/19 06:13:43;;;;;;;9.50;5.40;;;28.70;99.90;;;;;;5040090;28;20202;-81
2023/05/19 06:16:09;;;;;;;10.13;5.07;;;30.00;99.90;;;;;;5039463;28;20488;-81
2023/05/19 06:18:35;;;;;;;7.97;5.30;;;31.60;99.90;;;;;;5039774;28;20733;-81
2023/05/19 06:21:00;;;;;;;8.57;5.17;;;33.20;99.90;;;;;;5038426;28;20233;-83
2023/05/19 06:23:27;;;;;;;8.87;5.13;;;33.50;99.90;;;;;;5040995;28;20225;-81
2023/05/19 06:25:53;;;;;;;7.37;4.60;;;33.20;99.90;;;;;;5041341;28;20194;-81
2023/05/19 06:28:19;;;;;;;7.30;5.13;;;33.00;99.90;;;;;;5037261;28;20432;-81
2023/05/19 06:30:44;;;;;;;8.77;4.70;;;34.70;99.90;;;;;;5042589;28;20232;-83
2023/05/19 06:33:10;;;;;;;6.87;4.43;;;37.60;99.90;;;;;;5034333;28;20178;-82
2023/05/19 06:35:36;;;;;;;9.70;4.50;;;40.60;99.90;;;;;;5041403;28;20630;-84
2023/05/19 06:38:02;;;;;;;8.57;4.80;;;43.20;99.90;;;;;;5044001;28;20261;-83
2023/05/19 06:40:27;;;;;;;8.60;4.73;;;45.40;99.90;;;;;;5039442;28;20941;-84
2023/05/19 06:42:53;;;;;;;4.70;3.20;;;47.10;99.90;;;;;;5042834;28;20225;-85
2023/05/19 06:45:21;;;;;;;4.93;3.60;;;48.50;96.70;;;;;;5045371;28;20209;-85
2023/05/19 06:47:47;;;;;;;5.57;3.37;;;49.50;92.40;;;;;;5044164;28;20255;-85
2023/05/19 06:50:12;;;;;;;4.33;2.97;;;48.80;80.00;;;;;;5036174;28;20443;-84
2023/05/19 06:52:38;;;;;;;5.50;3.50;;;48.60;70.20;;;;;;5046516;28;20455;-85
2023/05/19 06:55:04;;;;;;;6.47;3.27;;;47.50;58.10;;;;;;5045318;28;20295;-85
2023/05/19 06:57:29;;;;;;;8.67;3.80;;;46.40;51.20;;;;;;5044204;28;20541;-82
2023/05/19 06:59:55;;;;;;;7.10;3.10;;;46.40;47.00;;;;;;5039797;28;20425;-84
2023/05/19 07:02:20;;;;;;;4.60;3.13;;;46.60;44.80;;;;;;5040198;28;20212;-83
2023/05/19 07:04:46;;;;;;;5.70;3.40;;;47.20;42.90;;;;;;5039333;28;20603;-85
2023/05/19 07:07:12;;;;;;;7.17;2.70;;;48.40;54.70;;;;;;5040123;28;20257;-84
2023/05/19 07:09:37;;;;;;;8.60;2.70;;;49.60;41.40;;;;;;5044484;28;20311;-84
2023/05/19 07:12:03;;;;;;;5.83;3.50;;;51.00;53.20;;;;;;5038598;28;20612;-84
2023/05/19 07:14:29;;;;;;;5.55;3.85;;;52.00;51.90;;;;;;5035971;28;20276;-81
2023/05/19 07:16:54;;;;;;;9.13;2.40;;;52.80;37.50;;;;;;5037231;28;20296;-82
2023/05/19 07:19:20;;;;;;;7.25;3.22;;;53.30;35.50;;;;;;5036999;28;20190;-81
2023/05/19 07:21:48;;;;;;;4.47;3.17;;;53.70;33.80;;;;;;5037458;28;20210;-82
2023/05/19 07:24:14;;;;;;;5.57;2.40;;;53.90;31.70;;;;;;5035679;28;20278;-80
2023/05/19 07:26:40;;;;;;;5.30;2.70;;;54.00;33.00;;;;;;5038592;28;20239;-80
2023/05/19 07:29:05;;;;;;;5.57;2.83;;;54.20;32.30;;;;;;5028651;28;20698;-83
2023/05/19 07:31:31;;;;;;;4.88;2.72;;;54.10;29.70;;;;;;5037161;28;20182;-82
2023/05/19 07:33:57;;;;;;;5.63;2.15;;;54.00;28.10;;;;;;5041805;28;20197;-83
2023/05/19 07:36:22;;;;;;;7.22;2.97;;;53.30;25.50;;;;;;5041627;28;20237;-81
2023/05/19 07:38:48;;;;;;;4.67;3.10;;;52.50;23.20;;;;;;5040566;28;20196;-81
2023/05/19 07:41:14;;;;;;;6.00;2.97;;;51.50;21.00;;;;;;5043629;28;20654;-82
2023/05/19 07:43:40;;;;;;;4.50;2.70;;;51.00;19.60;;;;;;5042125;28;20213;-80
2023/05/19 07:46:05;;;;;;;6.83;2.40;;;51.10;19.60;;;;;;5043977;28;20708;-80
2023/05/19 07:48:31;;;;;;;3.93;2.30;;;51.20;19.50;;;;;;5038909;28;20197;-80
2023/05/19 07:50:56;;;;;;;5.53;2.70;;;51.40;19.40;;;;;;5032716;28;20186;-81
2023/05/19 07:53:22;;;;;;;5.40;2.67;;;51.40;19.00;;;;;;5038889;28;20228;-81
2023/05/19 07:55:50;;;;;;;7.27;3.30;;;51.50;18.80;;;;;;5036947;28;20198;-81
2023/05/19 07:58:16;;;;;;;9.60;3.10;;;51.60;18.20;;;;;;5040885;28;20197;-82
2023/05/19 08:00:42;;;;;;;9.40;3.30;;;51.60;18.90;;;;;;5040355;28;20185;-81
2023/05/19 08:03:08;;;;;;;7.67;3.30;;;51.00;17.20;;;;;;5038816;28;20194;-80
2023/05/19 08:05:35;;;;;;;6.47;2.30;;;51.40;17.10;;;;;;5032703;28;20240;-82
2023/05/19 08:08:01;;;;;;;7.77;3.50;;;51.40;16.60;;;;;;5042399;28;20444;-83
2023/05/19 08:10:27;;;;;;;4.40;2.57;;;51.20;25.70;;;;;;5032149;28;20432;-80
2023/05/19 08:12:52;;;;;;;10.20;3.00;;;51.50;15.90;;;;;;5036398;28;20463;-81
2023/05/19 08:15:18;;;;;;;11.90;3.00;;;51.30;15.00;;;;;;5031647;28;20202;-81
2023/05/19 08:17:44;;;;;;;6.07;3.03;;;51.30;15.40;;;;;;5039930;28;20186;-81
2023/05/19 08:20:11;;;;;;;5.40;2.73;;;51.00;13.90;;;;;;5040898;28;20246;-82
2023/05/19 08:22:37;;;;;;;5.80;2.83;;;50.50;13.50;;;;;;5031221;28;20174;-81
2023/05/19 08:25:03;;;;;;;8.20;3.10;;;49.90;12.30;;;;;;5032337;28;20466;-82
2023/05/19 08:27:29;;;;;;;8.30;2.67;;;49.30;11.60;;;;;;5033319;28;20197;-78
2023/05/19 08:29:56;;;;;;;5.23;2.60;;;49.30;10.90;;;;;;5040626;28;20427;-83
2023/05/19 08:32:21;;;;;;;6.63;2.60;;;49.40;11.30;;;;;;5020423;28;21416;-83
2023/05/19 08:34:47;;;;;;;6.33;3.13;;;49.10;10.60;;;;;;5030893;28;20499;-84
2023/05/19 08:37:12;;;;;;;7.53;3.20;;;48.70;10.50;;;;;;5035664;28;20185;-82
2023/05/19 08:39:41;;;;;;;9.37;3.90;;;48.80;10.10;;;;;;5044724;28;20183;-80
2023/05/19 08:42:08;;;;;;;6.03;2.47;;;48.50;9.80;;;;;;5044873;28;20205;-79
2023/05/19 08:44:34;;;;;;;5.40;2.37;;;48.20;9.60;;;;;;5047164;28;21201;-80
2023/05/19 08:47:11;;;;;;;8.70;2.83;;;48.50;10.10;;;;;;5046510;28;20515;-81
2023/05/19 08:49:44;;;;;;;8.63;2.30;;;48.20;9.40;;;;;;5042806;28;20447;-80
2023/05/19 08:52:28;;;;;;;7.17;2.70;;;48.40;9.70;;;;;;5045539;28;20440;-79
2023/05/19 08:55:16;;;;;;;4.33;2.07;;;48.80;11.20;;;;;;5038547;28;20476;-83
2023/05/19 08:57:42;;;;;;;8.70;2.90;;;49.40;11.80;;;;;;5046963;28;20417;-83
2023/05/19 09:00:10;;;;;;;7.10;2.33;;;49.40;11.50;;;;;;5048018;28;20507;-81
2023/05/19 09:02:37;;;;;;;5.37;2.33;;;49.50;11.60;;;;;;5047365;28;20419;-82
2023/05/19 09:05:04;;;;;;;6.70;2.67;;;49.30;11.60;;;;;;5046152;28;20498;-83
2023/05/19 09:07:33;;;;;;;5.53;2.20;;;48.70;9.60;;;;;;5042230;28;20854;-81
2023/05/19 09:10:00;;;;;;;4.93;2.27;;;48.20;8.60;;;;;;5037644;28;20443;-80
2023/05/19 09:12:25;;;;;;;5.93;2.40;;;48.30;9.50;;;;;;5038801;28;20805;-82
2023/05/19 09:14:52;;;;;;;4.40;2.20;;;47.70;7.80;;;;;;5038935;28;20476;-80
2023/05/19 09:17:17;;;;;;;6.17;2.10;;;47.30;7.10;;;;;;5027062;28;20186;-83
2023/05/19 09:19:49;;;;;;;5.80;2.20;;;47.10;7.20;;;;;;5037364;28;20445;-82
2023/05/19 09:22:17;;;;;;;5.67;2.53;;;45.80;5.00;;;;;;5040818;28;20187;-80
2023/05/19 09:24:43;;;;;;;5.07;2.33;;;45.60;4.80;;;;;;5042360;28;20492;-80
2023/05/19 09:27:12;;;;;;;6.40;2.60;;;45.90;5.50;;;;;;5043285;28;20452;-81
2023/05/19 09:29:37;;;;;;;4.10;2.10;;;45.60;5.00;;;;;;5041722;28;20190;-80
2023/05/19 09:32:03;;;;;;;6.33;2.93;;;45.10;4.00;;;;;;5042976;28;20436;-82
2023/05/19 09:34:29;;;;;;;4.00;2.20;;;44.50;3.30;;;;;;5038591;28;20715;-85
2023/05/19 09:36:56;;;;;;;6.40;2.63;;;43.90;3.40;;;;;;5043456;28;20448;-84
2023/05/19 09:39:22;;;;;;;6.90;2.30;;;43.90;3.10;;;;;;5044240;28;20189;-83
2023/05/19 09:41:57;;;;;;;8.30;2.70;;;42.90;1.20;;;;;;5040812;28;20440;-84
2023/05/19 09:44:28;;;;;;;4.03;2.00;;;42.50;1.30;;;;;;5042864;28;20486;-84
2023/05/19 09:46:53;;;;;;;7.60;2.80;;;43.00;2.90;;;;;;5035471;28;20507;-83
2023/05/19 09:49:29;;;;;;;4.13;1.90;;;43.50;3.90;;;;;;5042465;28;20437;-86
2023/05/19 09:51:56;;;;;;;4.80;1.80;;;43.20;3.80;;;;;;5041773;28;20200;-85
2023/05/19 09:54:23;;;;;;;3.20;1.53;;;43.30;4.00;;;;;;5035963;28;20452;-85
2023/05/19 09:57:02;;;;;;;6.33;2.07;;;42.80;3.20;;;;;;5042756;28;20791;-84
2023/05/19 09:59:29;;;;;;;3.97;1.83;;;42.20;2.30;;;;;;5041404;28;20444;-84
2023/05/19 10:01:56;;;;;;;5.07;2.00;;;41.20;1.00;;;;;;5040547;28;20445;-84
2023/05/19 10:04:32;;;;;;;5.33;2.00;;;40.30;1.00;;;;;;5038815;28;20470;-84
2023/05/19 10:06:58;;;;;;;4.10;1.87;;;40.00;1.00;;;;;;5043260;28;20424;-83
2023/05/19 10:09:28;;;;;;;4.03;2.10;;;40.60;1.50;;;;;;5043659;28;20433;-85
2023/05/19 10:11:57;;;;;;;5.80;2.13;;;41.00;2.40;;;;;;5034756;28;20182;-84
2023/05/19 10:14:26;;;;;;;4.80;2.00;;;41.10;2.40;;;;;;5042378;28;20511;-84
2023/05/19 10:16:53;;;;;;;5.00;2.27;;;41.50;3.40;;;;;;5042748;28;20449;-83
2023/05/19 10:19:27;;;;;;;4.27;2.27;;;41.60;4.50;;;;;;5043746;28;20513;-85
2023/05/19 10:21:53;;;;;;;3.77;2.20;;;41.90;5.10;;;;;;5038977;28;20468;-85
2023/05/19 10:24:20;;;;;;;5.63;2.30;;;41.90;4.60;;;;;;5040303;28;20965;-83
2023/05/19 10:27:00;;;;;;;6.60;2.10;;;40.60;2.10;;;;;;5036720;28;20438;-85
2023/05/19 10:29:28;;;;;;;8.53;1.83;;;40.90;3.20;;;;;;5034865;28;20443;-85
2023/05/19 10:31:57;;;;;;;4.80;1.77;;;41.00;3.80;;;;;;5041758;28;20543;-83
2023/05/19 10:34:50;;;;;;;5.20;2.00;;;41.00;3.80;;;;;;5042362;28;20464;-85
2023/05/19 10:37:27;;;;;;;4.73;2.27;;;41.50;4.80;;;;;;5039880;28;20416;-85
2023/05/19 10:39:54;;;;;;;3.27;1.83;;;42.00;6.90;;;;;;5043317;28;20427;-84
2023/05/19 10:42:39;;;;;;;4.13;1.90;;;42.00;5.50;;;;;;5042439;28;20839;-83
2023/05/19 10:45:26;;;;;;;4.40;2.20;;;41.60;4.80;;;;;;5033880;28;20461;-83
2023/05/19 10:47:53;;;;;;;5.47;1.90;;;41.00;2.90;;;;;;5041969;28;20425;-84
2023/05/19 10:50:19;;;;;;;7.03;2.10;;;40.30;1.00;;;;;;5041027;28;20469;-85
2023/05/19 10:52:52;;;;;;;5.40;2.23;;;39.60;1.00;;;;;;5039598;28;20524;-85
2023/05/19 10:55:43;;;;;;;7.53;2.63;;;39.20;1.00;;;;;;5039658;28;20479;-85
2023/05/19 10:58:10;;;;;;;4.90;2.07;;;39.20;1.00;;;;;;5040637;28;20436;-83
2023/05/19 11:00:38;;;;;;;4.60;2.00;;;37.80;1.00;;;;;;5039675;28;20437;-84
2023/05/19 11:03:22;;;;;;;5.57;2.20;;;36.60;1.00;;;;;;5039732;28;21101;-84
2023/05/19 11:05:50;;;;;;;5.70;1.90;;;36.70;1.00;;;;;;5040516;28;20441;-84
2023/05/19 11:08:29;;;;;;;5.80;2.33;;;37.60;1.00;;;;;;5039740;28;20621;-84
2023/05/19 11:10:56;;;;;;;3.90;2.37;;;37.20;1.00;;;;;;5040556;28;21093;-83
2023/05/19 11:13:21;;;;;;;5.53;2.13;;;37.20;1.00;;;;;;5035754;28;20467;-83
2023/05/19 11:15:48;;;;;;;5.33;2.37;;;37.50;1.50;;;;;;5039362;28;20629;-82
2023/05/19 11:18:14;;;;;;;5.30;2.30;;;38.00;2.40;;;;;;5042297;28;20759;-85
2023/05/19 11:20:40;;;;;;;5.03;1.90;;;38.70;3.60;;;;;;5033539;28;20552;-83
2023/05/19 11:23:09;;;;;;;5.37;2.27;;;39.10;4.50;;;;;;5036174;28;20471;-83
2023/05/19 11:25:48;;;;;;;4.03;2.47;;;39.50;5.30;;;;;;5039125;28;20240;-83
2023/05/19 11:28:18;;;;;;;8.80;3.10;;;39.30;5.10;;;;;;5040820;28;21015;-82
2023/05/19 11:30:45;;;;;;;5.37;2.47;;;38.40;3.20;;;;;;5036960;28;20461;-84
2023/05/19 11:33:12;;;;;;;6.53;2.50;;;38.10;2.50;;;;;;5042350;28;20429;-83
2023/05/19 11:35:38;;;;;;;4.43;2.13;;;38.50;3.10;;;;;;5042507;28;20468;-82
2023/05/19 11:38:05;;;;;;;6.10;1.77;;;39.10;5.10;;;;;;5036596;28;20468;-82
2023/05/19 11:40:31;;;;;;;7.90;2.80;;;39.70;5.60;;;;;;5039039;28;20487;-83
2023/05/19 11:42:57;;;;;;;5.73;2.27;;;39.10;4.50;;;;;;5042840;28;20479;-85
2023/05/19 11:45:30;;;;;;;9.17;2.30;;;38.60;3.40;;;;;;5044717;28;20428;-84
2023/05/19 11:47:57;;;;;;;5.90;2.50;;;38.40;2.80;;;;;;5040794;28;20584;-84
2023/05/19 11:50:24;;;;;;;5.97;1.87;;;36.90;1.00;;;;;;5040436;28;20441;-83
2023/05/19 11:52:51;;;;;;;5.40;2.47;;;35.80;1.00;;;;;;5037507;28;20448;-82
2023/05/19 11:55:18;;;;;;;5.97;2.17;;;35.80;1.00;;;;;;5031623;28;20990;-83
2023/05/19 11:58:00;;;;;;;4.40;1.90;;;35.90;1.00;;;;;;5042022;28;21008;-84
2023/05/19 12:00:27;;;;;;;5.83;2.57;;;35.10;1.00;;;;;;5033477;28;20479;-84
2023/05/19 12:02:55;;;;;;;5.90;2.20;;;35.40;1.00;;;;;;5040618;28;20421;-83
2023/05/19 12:05:25;;;;;;;5.07;2.20;;;35.20;1.00;;;;;;5041982;28;20456;-83
2023/05/19 12:07:51;;;;;;;5.80;2.67;;;35.20;1.00;;;;;;5041754;28;20463;-83
2023/05/19 12:10:21;;;;;;;5.83;2.33;;;35.10;1.00;;;;;;5041876;28;20421;-84
2023/05/19 12:12:48;;;;;;;4.93;2.03;;;35.00;1.30;;;;;;5034864;28;20448;-85
2023/05/19 12:15:15;;;;;;;6.60;2.27;;;34.50;1.00;;;;;;5040785;28;20472;-84
2023/05/19 12:17:40;;;;;;;4.83;2.20;;;34.40;1.00;;;;;;5042205;28;20408;-83
2023/05/19 12:20:09;;;;;;;4.33;2.33;;;34.70;1.50;;;;;;5042231;28;20433;-85
2023/05/19 12:22:35;;;;;;;5.10;2.60;;;35.50;3.20;;;;;;5036640;28;20170;-82
2023/05/19 12:25:03;;;;;;;4.30;2.00;;;35.30;2.80;;;;;;5039824;28;20491;-84
2023/05/19 12:27:29;;;;;;;4.23;2.17;;;35.00;2.70;;;;;;5041879;28;20189;-85
2023/05/19 12:29:58;;;;;;;6.30;2.30;;;34.80;3.00;;;;;;5039126;28;20448;-82
2023/05/19 12:32:25;;;;;;;4.70;2.20;;;35.00;3.60;;;;;;5033677;28;20197;-83
2023/05/19 12:34:52;;;;;;;7.53;2.13;;;35.10;4.00;;;;;;5040991;28;20445;-83
2023/05/19 12:37:18;;;;;;;7.23;2.60;;;35.10;4.50;;;;;;5040317;28;20417;-84
2023/05/19 12:39:44;;;;;;;5.27;2.40;;;34.00;1.70;;;;;;5032809;28;20421;-83
2023/05/19 12:42:11;;;;;;;5.30;2.30;;;33.60;1.80;;;;;;5029156;28;20225;-83
2023/05/19 12:44:49;;;;;;;3.40;2.00;;;33.90;3.40;;;;;;5035910;28;20221;-85
2023/05/19 12:47:16;;;;;;;6.30;2.57;;;34.00;3.30;;;;;;5035558;28;20452;-83
2023/05/19 12:50:03;;;;;;;9.70;2.53;;;34.10;3.20;;;;;;5025880;28;20451;-84
2023/05/19 12:52:41;;;;;;;4.20;1.97;;;34.10;3.60;;;;;;5030080;28;21024;-83